Reston, Canada
Current Conditions -  °F | °C
As of 7:00 PM on Saturday 25 Oct 2014 (Local Time) from CYBR Reporting Station
Broken Clouds Broken Clouds  
Wind Chill: 44°   Ceiling: 25000
Heat Index: 46°   Visibility: 15mi
Dew Point: 25°   Wind: 5mph
Humidity: 43%   Direction: 300°WNW
Pressure: 29.99"   Gusts: NA
Location:  49.55°N, 101.08°W
Report Text: CYBR 260000Z 30004KT 15SM BKN250 08/M04 A2999 RMK CI7 SLP173
Loading
Personal Weather Stations






























Interactive Weather Map
Tropical Storm Tracking
New forecast layout! Learn more

10-Day Weather Forecast

Advertisements
Track Severe Weather on mobile